sensor_id;sensor_type;location;lat;lon;timestamp;P1;durP1;ratioP1;P2;durP2;ratioP2
787;SDS011;16074;42.708;23.312;2023-04-15T00:00:38;11.35;;;8.30;;
787;SDS011;16074;42.708;23.312;2023-04-15T00:03:08;10.82;;;9.73;;
787;SDS011;16074;42.708;23.312;2023-04-15T00:05:37;10.40;;;8.45;;
787;SDS011;16074;42.708;23.312;2023-04-15T00:08:05;9.20;;;8.30;;
787;SDS011;16074;42.708;23.312;2023-04-15T00:10:33;7.38;;;6.78;;
787;SDS011;16074;42.708;23.312;2023-04-15T00:13:02;10.00;;;8.73;;
787;SDS011;16074;42.708;23.312;2023-04-15T00:15:30;8.52;;;7.68;;
787;SDS011;16074;42.708;23.312;2023-04-15T00:17:58;9.32;;;8.30;;
787;SDS011;16074;42.708;23.312;2023-04-15T00:20:28;9.77;;;8.77;;
787;SDS011;16074;42.708;23.312;2023-04-15T00:22:56;10.90;;;8.52;;
787;SDS011;16074;42.708;23.312;2023-04-15T00:25:26;9.60;;;7.50;;
787;SDS011;16074;42.708;23.312;2023-04-15T00:27:54;8.52;;;7.55;;
787;SDS011;16074;42.708;23.312;2023-04-15T00:30:23;9.57;;;8.55;;
787;SDS011;16074;42.708;23.312;2023-04-15T00:32:52;13.52;;;8.40;;
787;SDS011;16074;42.708;23.312;2023-04-15T00:35:21;10.15;;;8.82;;
787;SDS011;16074;42.708;23.312;2023-04-15T00:37:51;11.10;;;9.73;;
787;SDS011;16074;42.708;23.312;2023-04-15T00:40:20;11.65;;;9.85;;
787;SDS011;16074;42.708;23.312;2023-04-15T00:42:50;11.50;;;10.43;;
787;SDS011;16074;42.708;23.312;2023-04-15T00:45:19;12.45;;;11.15;;
787;SDS011;16074;42.708;23.312;2023-04-15T00:47:47;12.80;;;11.48;;
787;SDS011;16074;42.708;23.312;2023-04-15T00:50:16;12.93;;;11.20;;
787;SDS011;16074;42.708;23.312;2023-04-15T00:52:44;11.90;;;10.80;;
787;SDS011;16074;42.708;23.312;2023-04-15T00:55:15;13.13;;;11.38;;
787;SDS011;16074;42.708;23.312;2023-04-15T00:57:43;14.50;;;13.00;;
787;SDS011;16074;42.708;23.312;2023-04-15T01:00:12;15.70;;;13.75;;
787;SDS011;16074;42.708;23.312;2023-04-15T01:02:42;12.57;;;10.93;;
787;SDS011;16074;42.708;23.312;2023-04-15T01:05:11;13.90;;;11.90;;
787;SDS011;16074;42.708;23.312;2023-04-15T01:07:39;13.32;;;11.93;;
787;SDS011;16074;42.708;23.312;2023-04-15T01:10:08;13.27;;;11.68;;
787;SDS011;16074;42.708;23.312;2023-04-15T01:12:38;12.80;;;11.63;;
787;SDS011;16074;42.708;23.312;2023-04-15T01:15:07;23.52;;;20.23;;
787;SDS011;16074;42.708;23.312;2023-04-15T01:17:36;18.38;;;16.58;;
787;SDS011;16074;42.708;23.312;2023-04-15T01:20:06;16.90;;;15.20;;
787;SDS011;16074;42.708;23.312;2023-04-15T01:22:37;14.10;;;12.80;;
787;SDS011;16074;42.708;23.312;2023-04-15T01:25:08;15.73;;;12.95;;
787;SDS011;16074;42.708;23.312;2023-04-15T01:27:40;16.17;;;14.70;;
787;SDS011;16074;42.708;23.312;2023-04-15T01:30:09;14.80;;;12.82;;
787;SDS011;16074;42.708;23.312;2023-04-15T01:32:38;16.92;;;11.88;;
787;SDS011;16074;42.708;23.312;2023-04-15T01:35:25;11.85;;;9.07;;
787;SDS011;16074;42.708;23.312;2023-04-15T01:37:53;9.18;;;8.30;;
787;SDS011;16074;42.708;23.312;2023-04-15T01:40:30;11.70;;;10.07;;
787;SDS011;16074;42.708;23.312;2023-04-15T01:43:00;11.73;;;10.52;;
787;SDS011;16074;42.708;23.312;2023-04-15T01:45:29;11.88;;;9.90;;
787;SDS011;16074;42.708;23.312;2023-04-15T01:47:57;11.50;;;10.35;;
787;SDS011;16074;42.708;23.312;2023-04-15T01:50:26;10.88;;;9.77;;
787;SDS011;16074;42.708;23.312;2023-04-15T01:52:54;13.52;;;10.63;;
787;SDS011;16074;42.708;23.312;2023-04-15T01:55:23;13.77;;;10.13;;
787;SDS011;16074;42.708;23.312;2023-04-15T01:57:51;12.30;;;11.10;;
787;SDS011;16074;42.708;23.312;2023-04-15T02:00:21;12.05;;;10.85;;
787;SDS011;16074;42.708;23.312;2023-04-15T02:02:50;13.50;;;10.70;;
787;SDS011;16074;42.708;23.312;2023-04-15T02:05:19;12.18;;;10.23;;
787;SDS011;16074;42.708;23.312;2023-04-15T02:07:47;12.35;;;11.05;;
787;SDS011;16074;42.708;23.312;2023-04-15T02:10:16;15.00;;;10.75;;
787;SDS011;16074;42.708;23.312;2023-04-15T02:12:44;14.07;;;11.52;;
787;SDS011;16074;42.708;23.312;2023-04-15T02:15:12;11.45;;;10.32;;
787;SDS011;16074;42.708;23.312;2023-04-15T02:17:42;10.75;;;9.68;;
787;SDS011;16074;42.708;23.312;2023-04-15T02:20:17;13.48;;;11.00;;
787;SDS011;16074;42.708;23.312;2023-04-15T02:22:46;11.88;;;10.70;;
787;SDS011;16074;42.708;23.312;2023-04-15T02:25:15;13.15;;;11.85;;
787;SDS011;16074;42.708;23.312;2023-04-15T02:27:43;12.20;;;10.55;;
787;SDS011;16074;42.708;23.312;2023-04-15T02:30:12;12.93;;;11.52;;
787;SDS011;16074;42.708;23.312;2023-04-15T02:32:40;14.80;;;11.07;;
787;SDS011;16074;42.708;23.312;2023-04-15T02:35:12;13.60;;;11.15;;
787;SDS011;16074;42.708;23.312;2023-04-15T02:37:40;14.32;;;11.85;;
787;SDS011;16074;42.708;23.312;2023-04-15T02:40:11;15.40;;;10.88;;
787;SDS011;16074;42.708;23.312;2023-04-15T02:42:40;11.43;;;10.30;;
787;SDS011;16074;42.708;23.312;2023-04-15T02:45:12;12.98;;;11.57;;
787;SDS011;16074;42.708;23.312;2023-04-15T02:47:41;12.05;;;10.75;;
787;SDS011;16074;42.708;23.312;2023-04-15T02:50:13;10.75;;;9.80;;
787;SDS011;16074;42.708;23.312;2023-04-15T02:52:42;12.73;;;11.15;;
787;SDS011;16074;42.708;23.312;2023-04-15T02:55:10;10.25;;;9.18;;
787;SDS011;16074;42.708;23.312;2023-04-15T02:57:39;12.15;;;10.77;;
787;SDS011;16074;42.708;23.312;2023-04-15T03:00:09;11.27;;;10.05;;
787;SDS011;16074;42.708;23.312;2023-04-15T03:02:43;10.85;;;9.75;;
787;SDS011;16074;42.708;23.312;2023-04-15T03:05:14;12.52;;;10.15;;
787;SDS011;16074;42.708;23.312;2023-04-15T03:07:47;11.05;;;9.90;;
787;SDS011;16074;42.708;23.312;2023-04-15T03:10:16;9.77;;;8.85;;
787;SDS011;16074;42.708;23.312;2023-04-15T03:12:45;10.60;;;9.48;;
787;SDS011;16074;42.708;23.312;2023-04-15T03:15:19;10.82;;;9.15;;
787;SDS011;16074;42.708;23.312;2023-04-15T03:17:50;8.63;;;7.72;;
787;SDS011;16074;42.708;23.312;2023-04-15T03:20:20;8.70;;;7.90;;
787;SDS011;16074;42.708;23.312;2023-04-15T03:22:49;8.07;;;7.30;;
787;SDS011;16074;42.708;23.312;2023-04-15T03:25:19;9.18;;;8.27;;
787;SDS011;16074;42.708;23.312;2023-04-15T03:27:47;10.57;;;9.25;;
787;SDS011;16074;42.708;23.312;2023-04-15T03:30:16;10.57;;;7.88;;
787;SDS011;16074;42.708;23.312;2023-04-15T03:32:45;8.95;;;7.78;;
787;SDS011;16074;42.708;23.312;2023-04-15T03:35:14;10.52;;;8.57;;
787;SDS011;16074;42.708;23.312;2023-04-15T03:37:44;11.25;;;7.97;;
787;SDS011;16074;42.708;23.312;2023-04-15T03:40:12;8.82;;;7.63;;
787;SDS011;16074;42.708;23.312;2023-04-15T03:42:41;9.88;;;8.85;;
787;SDS011;16074;42.708;23.312;2023-04-15T03:45:10;9.95;;;8.98;;
787;SDS011;16074;42.708;23.312;2023-04-15T03:47:38;8.80;;;7.90;;
787;SDS011;16074;42.708;23.312;2023-04-15T03:50:07;10.10;;;8.80;;
787;SDS011;16074;42.708;23.312;2023-04-15T03:52:35;9.50;;;8.50;;
787;SDS011;16074;42.708;23.312;2023-04-15T03:55:05;9.23;;;8.23;;
787;SDS011;16074;42.708;23.312;2023-04-15T03:57:35;9.73;;;7.97;;
787;SDS011;16074;42.708;23.312;2023-04-15T04:00:05;10.65;;;9.02;;
787;SDS011;16074;42.708;23.312;2023-04-15T04:02:37;12.27;;;8.60;;
787;SDS011;16074;42.708;23.312;2023-04-15T04:05:06;8.77;;;7.97;;
787;SDS011;16074;42.708;23.312;2023-04-15T04:07:35;20.00;;;15.52;;
787;SDS011;16074;42.708;23.312;2023-04-15T04:10:05;12.48;;;9.93;;
787;SDS011;16074;42.708;23.312;2023-04-15T04:12:34;14.30;;;12.52;;
787;SDS011;16074;42.708;23.312;2023-04-15T04:15:02;11.20;;;10.10;;
787;SDS011;16074;42.708;23.312;2023-04-15T04:17:31;11.73;;;10.63;;
787;SDS011;16074;42.708;23.312;2023-04-15T04:19:59;14.75;;;10.77;;
787;SDS011;16074;42.708;23.312;2023-04-15T04:22:27;15.98;;;12.55;;
787;SDS011;16074;42.708;23.312;2023-04-15T04:24:56;18.00;;;14.20;;
787;SDS011;16074;42.708;23.312;2023-04-15T04:27:26;12.70;;;11.38;;
787;SDS011;16074;42.708;23.312;2023-04-15T04:29:54;13.43;;;11.60;;
787;SDS011;16074;42.708;23.312;2023-04-15T04:32:22;15.38;;;12.23;;
787;SDS011;16074;42.708;23.312;2023-04-15T04:34:51;14.60;;;13.10;;
787;SDS011;16074;42.708;23.312;2023-04-15T04:37:19;20.25;;;12.93;;
787;SDS011;16074;42.708;23.312;2023-04-15T04:39:48;12.77;;;11.02;;
787;SDS011;16074;42.708;23.312;2023-04-15T04:42:17;12.57;;;10.40;;
787;SDS011;16074;42.708;23.312;2023-04-15T04:44:46;15.93;;;12.10;;
787;SDS011;16074;42.708;23.312;2023-04-15T04:47:15;12.68;;;11.30;;
787;SDS011;16074;42.708;23.312;2023-04-15T04:49:43;12.63;;;10.45;;
787;SDS011;16074;42.708;23.312;2023-04-15T04:52:11;13.32;;;10.65;;
787;SDS011;16074;42.708;23.312;2023-04-15T04:54:39;13.10;;;10.07;;
787;SDS011;16074;42.708;23.312;2023-04-15T04:57:07;11.20;;;10.10;;
787;SDS011;16074;42.708;23.312;2023-04-15T04:59:36;11.27;;;10.18;;
787;SDS011;16074;42.708;23.312;2023-04-15T05:02:05;11.38;;;10.32;;
787;SDS011;16074;42.708;23.312;2023-04-15T05:04:34;12.38;;;9.68;;
787;SDS011;16074;42.708;23.312;2023-04-15T05:07:02;11.68;;;10.57;;
787;SDS011;16074;42.708;23.312;2023-04-15T05:09:31;10.77;;;9.65;;
787;SDS011;16074;42.708;23.312;2023-04-15T05:12:01;12.02;;;10.63;;
787;SDS011;16074;42.708;23.312;2023-04-15T05:14:31;11.55;;;10.38;;
787;SDS011;16074;42.708;23.312;2023-04-15T05:16:59;11.60;;;10.50;;
787;SDS011;16074;42.708;23.312;2023-04-15T05:19:29;11.75;;;10.55;;
787;SDS011;16074;42.708;23.312;2023-04-15T05:21:57;12.35;;;11.13;;
787;SDS011;16074;42.708;23.312;2023-04-15T05:24:25;14.38;;;9.88;;
787;SDS011;16074;42.708;23.312;2023-04-15T05:26:53;12.27;;;10.30;;
787;SDS011;16074;42.708;23.312;2023-04-15T05:29:22;13.48;;;9.98;;
787;SDS011;16074;42.708;23.312;2023-04-15T05:31:50;11.32;;;10.18;;
787;SDS011;16074;42.708;23.312;2023-04-15T05:34:19;13.20;;;10.10;;
787;SDS011;16074;42.708;23.312;2023-04-15T05:36:48;15.88;;;11.30;;
787;SDS011;16074;42.708;23.312;2023-04-15T05:39:18;10.60;;;9.50;;
787;SDS011;16074;42.708;23.312;2023-04-15T05:41:46;11.77;;;10.65;;
787;SDS011;16074;42.708;23.312;2023-04-15T05:44:14;11.90;;;10.70;;
787;SDS011;16074;42.708;23.312;2023-04-15T05:46:42;11.45;;;10.25;;
787;SDS011;16074;42.708;23.312;2023-04-15T05:49:11;11.35;;;9.60;;
787;SDS011;16074;42.708;23.312;2023-04-15T05:51:39;12.88;;;10.43;;
787;SDS011;16074;42.708;23.312;2023-04-15T05:54:09;14.50;;;12.52;;
787;SDS011;16074;42.708;23.312;2023-04-15T05:56:37;13.55;;;11.90;;
787;SDS011;16074;42.708;23.312;2023-04-15T05:59:06;12.75;;;11.45;;
787;SDS011;16074;42.708;23.312;2023-04-15T06:01:34;14.82;;;13.05;;
787;SDS011;16074;42.708;23.312;2023-04-15T06:04:02;14.02;;;11.50;;
787;SDS011;16074;42.708;23.312;2023-04-15T06:06:31;18.95;;;12.38;;
787;SDS011;16074;42.708;23.312;2023-04-15T06:08:59;14.65;;;12.43;;
787;SDS011;16074;42.708;23.312;2023-04-15T06:11:29;13.20;;;11.40;;
787;SDS011;16074;42.708;23.312;2023-04-15T06:13:57;12.73;;;11.38;;
787;SDS011;16074;42.708;23.312;2023-04-15T06:16:26;13.40;;;11.75;;
787;SDS011;16074;42.708;23.312;2023-04-15T06:18:54;12.68;;;11.55;;
787;SDS011;16074;42.708;23.312;2023-04-15T06:21:22;15.02;;;11.75;;
787;SDS011;16074;42.708;23.312;2023-04-15T06:23:51;16.85;;;11.88;;
787;SDS011;16074;42.708;23.312;2023-04-15T06:26:20;11.23;;;9.95;;
787;SDS011;16074;42.708;23.312;2023-04-15T06:28:49;14.70;;;10.60;;
787;SDS011;16074;42.708;23.312;2023-04-15T06:31:17;13.70;;;10.85;;
787;SDS011;16074;42.708;23.312;2023-04-15T06:33:46;16.15;;;10.82;;
787;SDS011;16074;42.708;23.312;2023-04-15T06:36:15;12.73;;;9.55;;
787;SDS011;16074;42.708;23.312;2023-04-15T06:38:43;10.40;;;9.40;;
787;SDS011;16074;42.708;23.312;2023-04-15T06:41:11;11.93;;;9.40;;
787;SDS011;16074;42.708;23.312;2023-04-15T06:43:40;13.57;;;9.18;;
787;SDS011;16074;42.708;23.312;2023-04-15T06:46:10;10.70;;;8.68;;
787;SDS011;16074;42.708;23.312;2023-04-15T06:48:38;8.50;;;7.50;;
787;SDS011;16074;42.708;23.312;2023-04-15T06:51:07;10.18;;;8.57;;
787;SDS011;16074;42.708;23.312;2023-04-15T06:53:35;8.55;;;7.63;;
787;SDS011;16074;42.708;23.312;2023-04-15T06:56:07;9.07;;;8.07;;
787;SDS011;16074;42.708;23.312;2023-04-15T06:58:35;9.70;;;7.95;;
787;SDS011;16074;42.708;23.312;2023-04-15T07:01:03;10.80;;;8.02;;
787;SDS011;16074;42.708;23.312;2023-04-15T07:03:33;7.57;;;6.68;;
787;SDS011;16074;42.708;23.312;2023-04-15T07:06:02;9.55;;;7.43;;
787;SDS011;16074;42.708;23.312;2023-04-15T07:08:32;9.82;;;8.00;;
787;SDS011;16074;42.708;23.312;2023-04-15T07:11:00;9.65;;;7.05;;
787;SDS011;16074;42.708;23.312;2023-04-15T07:13:29;10.40;;;8.07;;
787;SDS011;16074;42.708;23.312;2023-04-15T07:15:58;11.35;;;8.95;;
787;SDS011;16074;42.708;23.312;2023-04-15T07:18:27;9.95;;;9.05;;
787;SDS011;16074;42.708;23.312;2023-04-15T07:20:56;10.30;;;7.97;;
787;SDS011;16074;42.708;23.312;2023-04-15T07:23:24;8.43;;;7.63;;
787;SDS011;16074;42.708;23.312;2023-04-15T07:25:53;9.87;;;7.00;;
787;SDS011;16074;42.708;23.312;2023-04-15T07:28:21;6.73;;;6.13;;
787;SDS011;16074;42.708;23.312;2023-04-15T07:30:49;8.30;;;7.60;;
787;SDS011;16074;42.708;23.312;2023-04-15T07:33:18;7.50;;;6.37;;
787;SDS011;16074;42.708;23.312;2023-04-15T07:35:46;7.83;;;6.80;;
787;SDS011;16074;42.708;23.312;2023-04-15T07:38:16;10.90;;;7.87;;
787;SDS011;16074;42.708;23.312;2023-04-15T07:40:45;7.27;;;6.53;;
787;SDS011;16074;42.708;23.312;2023-04-15T07:43:14;5.40;;;5.10;;
787;SDS011;16074;42.708;23.312;2023-04-15T07:45:42;10.33;;;7.27;;
787;SDS011;16074;42.708;23.312;2023-04-15T07:48:10;6.43;;;5.83;;
787;SDS011;16074;42.708;23.312;2023-04-15T07:50:39;6.43;;;5.30;;
787;SDS011;16074;42.708;23.312;2023-04-15T07:53:07;8.70;;;4.80;;
787;SDS011;16074;42.708;23.312;2023-04-15T07:55:36;5.00;;;4.10;;
787;SDS011;16074;42.708;23.312;2023-04-15T07:58:05;4.30;;;3.90;;
787;SDS011;16074;42.708;23.312;2023-04-15T08:00:33;3.90;;;3.60;;
787;SDS011;16074;42.708;23.312;2023-04-15T08:03:01;3.60;;;3.30;;
787;SDS011;16074;42.708;23.312;2023-04-15T08:05:30;7.00;;;3.60;;
787;SDS011;16074;42.708;23.312;2023-04-15T08:07:58;5.20;;;3.90;;
787;SDS011;16074;42.708;23.312;2023-04-15T08:10:28;5.57;;;3.10;;
787;SDS011;16074;42.708;23.312;2023-04-15T08:12:57;2.87;;;2.60;;
787;SDS011;16074;42.708;23.312;2023-04-15T08:15:26;3.57;;;3.37;;
787;SDS011;16074;42.708;23.312;2023-04-15T08:17:55;4.37;;;2.77;;
787;SDS011;16074;42.708;23.312;2023-04-15T08:20:23;3.90;;;2.97;;
787;SDS011;16074;42.708;23.312;2023-04-15T08:22:51;2.80;;;2.60;;
787;SDS011;16074;42.708;23.312;2023-04-15T08:25:19;3.60;;;2.87;;
787;SDS011;16074;42.708;23.312;2023-04-15T08:27:48;2.00;;;1.80;;
787;SDS011;16074;42.708;23.312;2023-04-15T08:30:17;4.03;;;2.90;;
787;SDS011;16074;42.708;23.312;2023-04-15T08:32:46;4.17;;;2.20;;
787;SDS011;16074;42.708;23.312;2023-04-15T08:35:14;2.47;;;2.27;;
787;SDS011;16074;42.708;23.312;2023-04-15T08:37:43;3.83;;;2.33;;
787;SDS011;16074;42.708;23.312;2023-04-15T08:40:11;2.53;;;1.73;;
787;SDS011;16074;42.708;23.312;2023-04-15T08:42:40;2.63;;;2.40;;
787;SDS011;16074;42.708;23.312;2023-04-15T08:45:11;2.73;;;2.40;;
787;SDS011;16074;42.708;23.312;2023-04-15T08:47:41;2.27;;;1.80;;
787;SDS011;16074;42.708;23.312;2023-04-15T08:50:10;2.67;;;2.47;;
787;SDS011;16074;42.708;23.312;2023-04-15T08:52:39;2.40;;;2.20;;
787;SDS011;16074;42.708;23.312;2023-04-15T08:55:08;19.23;;;3.63;;
787;SDS011;16074;42.708;23.312;2023-04-15T08:57:38;2.30;;;2.20;;
787;SDS011;16074;42.708;23.312;2023-04-15T09:00:07;5.50;;;1.90;;
787;SDS011;16074;42.708;23.312;2023-04-15T09:02:36;2.57;;;2.23;;
787;SDS011;16074;42.708;23.312;2023-04-15T09:05:07;3.87;;;3.03;;
787;SDS011;16074;42.708;23.312;2023-04-15T09:07:35;2.30;;;2.10;;
787;SDS011;16074;42.708;23.312;2023-04-15T09:10:03;2.47;;;2.23;;
787;SDS011;16074;42.708;23.312;2023-04-15T09:12:33;2.80;;;2.40;;
787;SDS011;16074;42.708;23.312;2023-04-15T09:15:02;3.87;;;2.23;;
787;SDS011;16074;42.708;23.312;2023-04-15T09:17:31;2.27;;;2.07;;
787;SDS011;16074;42.708;23.312;2023-04-15T09:20:09;1.80;;;1.80;;
787;SDS011;16074;42.708;23.312;2023-04-15T09:22:38;1.63;;;1.53;;
787;SDS011;16074;42.708;23.312;2023-04-15T09:27:55;2.60;;;2.50;;
787;SDS011;16074;42.708;23.312;2023-04-15T09:30:26;3.13;;;2.93;;
787;SDS011;16074;42.708;23.312;2023-04-15T09:32:56;3.77;;;3.20;;
787;SDS011;16074;42.708;23.312;2023-04-15T09:35:27;3.90;;;2.90;;
787;SDS011;16074;42.708;23.312;2023-04-15T09:38:00;3.40;;;3.00;;
787;SDS011;16074;42.708;23.312;2023-04-15T09:40:30;3.67;;;3.40;;
787;SDS011;16074;42.708;23.312;2023-04-15T09:42:59;3.60;;;3.10;;
787;SDS011;16074;42.708;23.312;2023-04-15T09:45:28;4.00;;;3.57;;
787;SDS011;16074;42.708;23.312;2023-04-15T09:47:57;4.00;;;3.50;;
787;SDS011;16074;42.708;23.312;2023-04-15T09:50:28;3.50;;;3.30;;
787;SDS011;16074;42.708;23.312;2023-04-15T09:52:56;3.10;;;2.90;;
787;SDS011;16074;42.708;23.312;2023-04-15T09:55:25;4.47;;;2.97;;
787;SDS011;16074;42.708;23.312;2023-04-15T09:57:53;3.63;;;3.10;;
787;SDS011;16074;42.708;23.312;2023-04-15T10:00:21;3.20;;;3.00;;
787;SDS011;16074;42.708;23.312;2023-04-15T10:02:50;7.47;;;2.67;;
787;SDS011;16074;42.708;23.312;2023-04-15T10:05:19;3.00;;;2.70;;
787;SDS011;16074;42.708;23.312;2023-04-15T10:07:50;3.17;;;2.73;;
787;SDS011;16074;42.708;23.312;2023-04-15T10:10:18;5.13;;;2.70;;
787;SDS011;16074;42.708;23.312;2023-04-15T10:12:47;3.77;;;2.40;;
787;SDS011;16074;42.708;23.312;2023-04-15T10:15:17;2.07;;;1.97;;
787;SDS011;16074;42.708;23.312;2023-04-15T10:17:46;1.87;;;1.77;;
787;SDS011;16074;42.708;23.312;2023-04-15T10:20:17;1.83;;;1.50;;
787;SDS011;16074;42.708;23.312;2023-04-15T10:22:47;3.40;;;2.17;;
787;SDS011;16074;42.708;23.312;2023-04-15T10:25:18;1.83;;;1.70;;
787;SDS011;16074;42.708;23.312;2023-04-15T10:27:47;1.90;;;1.80;;
787;SDS011;16074;42.708;23.312;2023-04-15T10:30:18;3.73;;;3.43;;
787;SDS011;16074;42.708;23.312;2023-04-15T10:32:47;1.60;;;1.50;;
787;SDS011;16074;42.708;23.312;2023-04-15T10:35:16;2.57;;;1.67;;
787;SDS011;16074;42.708;23.312;2023-04-15T10:37:47;7.30;;;2.30;;
787;SDS011;16074;42.708;23.312;2023-04-15T10:40:27;3.40;;;1.80;;
787;SDS011;16074;42.708;23.312;2023-04-15T10:42:58;2.40;;;1.77;;
787;SDS011;16074;42.708;23.312;2023-04-15T10:45:31;2.10;;;1.90;;
787;SDS011;16074;42.708;23.312;2023-04-15T10:48:00;1.40;;;1.30;;
787;SDS011;16074;42.708;23.312;2023-04-15T10:50:31;1.60;;;1.50;;
787;SDS011;16074;42.708;23.312;2023-04-15T10:53:01;1.60;;;1.50;;
787;SDS011;16074;42.708;23.312;2023-04-15T10:55:34;1.70;;;1.60;;
787;SDS011;16074;42.708;23.312;2023-04-15T10:58:02;1.63;;;1.50;;
787;SDS011;16074;42.708;23.312;2023-04-15T11:00:31;1.93;;;1.60;;
787;SDS011;16074;42.708;23.312;2023-04-15T11:03:04;1.70;;;1.60;;
787;SDS011;16074;42.708;23.312;2023-04-15T11:05:47;3.40;;;1.90;;
787;SDS011;16074;42.708;23.312;2023-04-15T11:08:17;1.33;;;1.33;;
787;SDS011;16074;42.708;23.312;2023-04-15T11:13:24;1.73;;;1.63;;
787;SDS011;16074;42.708;23.312;2023-04-15T11:15:59;2.00;;;1.90;;
787;SDS011;16074;42.708;23.312;2023-04-15T11:18:29;1.27;;;1.27;;
787;SDS011;16074;42.708;23.312;2023-04-15T11:20:59;3.90;;;2.47;;
787;SDS011;16074;42.708;23.312;2023-04-15T11:23:30;4.83;;;2.90;;
787;SDS011;16074;42.708;23.312;2023-04-15T11:26:02;2.70;;;2.50;;
787;SDS011;16074;42.708;23.312;2023-04-15T11:28:35;2.43;;;2.23;;
787;SDS011;16074;42.708;23.312;2023-04-15T11:31:08;1.83;;;1.40;;
787;SDS011;16074;42.708;23.312;2023-04-15T11:33:43;1.57;;;1.47;;
787;SDS011;16074;42.708;23.312;2023-04-15T11:36:13;1.50;;;1.40;;
787;SDS011;16074;42.708;23.312;2023-04-15T11:38:42;1.90;;;1.70;;
787;SDS011;16074;42.708;23.312;2023-04-15T11:41:12;2.60;;;2.10;;
787;SDS011;16074;42.708;23.312;2023-04-15T11:43:41;1.90;;;1.80;;
787;SDS011;16074;42.708;23.312;2023-04-15T11:46:09;5.73;;;1.80;;
787;SDS011;16074;42.708;23.312;2023-04-15T11:48:40;1.40;;;1.30;;
787;SDS011;16074;42.708;23.312;2023-04-15T11:51:09;2.57;;;1.50;;
787;SDS011;16074;42.708;23.312;2023-04-15T11:53:39;3.00;;;1.77;;
787;SDS011;16074;42.708;23.312;2023-04-15T11:56:10;2.87;;;2.00;;
787;SDS011;16074;42.708;23.312;2023-04-15T11:58:45;1.87;;;1.30;;
787;SDS011;16074;42.708;23.312;2023-04-15T12:01:15;2.77;;;1.33;;
787;SDS011;16074;42.708;23.312;2023-04-15T12:03:44;1.57;;;1.50;;
787;SDS011;16074;42.708;23.312;2023-04-15T12:06:14;3.83;;;1.93;;
787;SDS011;16074;42.708;23.312;2023-04-15T12:08:58;1.47;;;1.40;;
787;SDS011;16074;42.708;23.312;2023-04-15T12:11:35;1.50;;;1.40;;
787;SDS011;16074;42.708;23.312;2023-04-15T12:14:07;2.20;;;1.90;;
787;SDS011;16074;42.708;23.312;2023-04-15T12:16:37;1.53;;;1.43;;
787;SDS011;16074;42.708;23.312;2023-04-15T12:19:15;0.97;;;0.97;;
787;SDS011;16074;42.708;23.312;2023-04-15T12:21:45;1.63;;;1.53;;
787;SDS011;16074;42.708;23.312;2023-04-15T12:24:14;1.20;;;1.20;;
787;SDS011;16074;42.708;23.312;2023-04-15T12:26:48;1.40;;;1.30;;
787;SDS011;16074;42.708;23.312;2023-04-15T12:29:19;1.00;;;1.00;;
787;SDS011;16074;42.708;23.312;2023-04-15T12:31:52;3.20;;;1.43;;
787;SDS011;16074;42.708;23.312;2023-04-15T12:34:28;1.10;;;1.10;;
787;SDS011;16074;42.708;23.312;2023-04-15T12:36:58;1.40;;;1.30;;
787;SDS011;16074;42.708;23.312;2023-04-15T12:39:30;1.30;;;1.20;;
787;SDS011;16074;42.708;23.312;2023-04-15T12:42:02;1.20;;;1.10;;
787;SDS011;16074;42.708;23.312;2023-04-15T12:44:33;1.40;;;1.17;;
787;SDS011;16074;42.708;23.312;2023-04-15T12:47:02;1.20;;;1.20;;
787;SDS011;16074;42.708;23.312;2023-04-15T12:49:31;1.33;;;1.33;;
787;SDS011;16074;42.708;23.312;2023-04-15T12:52:00;1.23;;;1.03;;
787;SDS011;16074;42.708;23.312;2023-04-15T12:54:30;1.47;;;1.37;;
787;SDS011;16074;42.708;23.312;2023-04-15T12:56:58;1.43;;;1.07;;
787;SDS011;16074;42.708;23.312;2023-04-15T12:59:33;1.10;;;1.10;;
787;SDS011;16074;42.708;23.312;2023-04-15T13:02:02;2.97;;;1.20;;
787;SDS011;16074;42.708;23.312;2023-04-15T13:04:31;1.07;;;1.07;;
787;SDS011;16074;42.708;23.312;2023-04-15T13:06:59;1.20;;;1.10;;
787;SDS011;16074;42.708;23.312;2023-04-15T13:09:28;0.90;;;0.90;;
787;SDS011;16074;42.708;23.312;2023-04-15T13:11:57;1.63;;;1.20;;
787;SDS011;16074;42.708;23.312;2023-04-15T13:14:25;2.60;;;1.50;;
787;SDS011;16074;42.708;23.312;2023-04-15T13:16:55;1.37;;;1.27;;
787;SDS011;16074;42.708;23.312;2023-04-15T13:19:23;2.03;;;1.20;;
787;SDS011;16074;42.708;23.312;2023-04-15T13:21:52;0.70;;;0.70;;
787;SDS011;16074;42.708;23.312;2023-04-15T13:24:21;1.53;;;1.40;;
787;SDS011;16074;42.708;23.312;2023-04-15T13:26:49;1.50;;;1.40;;
787;SDS011;16074;42.708;23.312;2023-04-15T13:29:17;1.63;;;1.30;;
787;SDS011;16074;42.708;23.312;2023-04-15T13:31:45;1.77;;;1.00;;
787;SDS011;16074;42.708;23.312;2023-04-15T13:34:15;0.80;;;0.80;;
787;SDS011;16074;42.708;23.312;2023-04-15T13:36:43;4.60;;;1.10;;
787;SDS011;16074;42.708;23.312;2023-04-15T13:39:12;0.70;;;0.70;;
787;SDS011;16074;42.708;23.312;2023-04-15T13:41:40;1.03;;;1.03;;
787;SDS011;16074;42.708;23.312;2023-04-15T13:44:08;1.70;;;1.27;;
787;SDS011;16074;42.708;23.312;2023-04-15T13:46:37;3.70;;;1.60;;
787;SDS011;16074;42.708;23.312;2023-04-15T13:49:07;1.90;;;1.37;;
787;SDS011;16074;42.708;23.312;2023-04-15T13:51:37;0.90;;;0.90;;
787;SDS011;16074;42.708;23.312;2023-04-15T13:54:06;2.17;;;1.90;;
787;SDS011;16074;42.708;23.312;2023-04-15T13:56:34;0.93;;;0.93;;
787;SDS011;16074;42.708;23.312;2023-04-15T13:59:02;1.50;;;1.13;;
787;SDS011;16074;42.708;23.312;2023-04-15T14:01:32;2.30;;;1.87;;
787;SDS011;16074;42.708;23.312;2023-04-15T14:04:01;1.80;;;1.10;;
787;SDS011;16074;42.708;23.312;2023-04-15T14:06:30;2.80;;;0.70;;
787;SDS011;16074;42.708;23.312;2023-04-15T14:09:00;1.97;;;1.10;;
787;SDS011;16074;42.708;23.312;2023-04-15T14:11:28;0.80;;;0.80;;
787;SDS011;16074;42.708;23.312;2023-04-15T14:13:56;1.20;;;1.13;;
787;SDS011;16074;42.708;23.312;2023-04-15T14:16:25;0.90;;;0.90;;
787;SDS011;16074;42.708;23.312;2023-04-15T14:18:53;0.90;;;0.90;;
787;SDS011;16074;42.708;23.312;2023-04-15T14:21:21;0.97;;;0.97;;
787;SDS011;16074;42.708;23.312;2023-04-15T14:23:50;1.67;;;1.20;;
787;SDS011;16074;42.708;23.312;2023-04-15T14:26:19;1.53;;;1.43;;
787;SDS011;16074;42.708;23.312;2023-04-15T14:28:48;0.60;;;0.60;;
787;SDS011;16074;42.708;23.312;2023-04-15T14:31:18;1.10;;;1.10;;
787;SDS011;16074;42.708;23.312;2023-04-15T14:33:46;3.77;;;1.63;;
787;SDS011;16074;42.708;23.312;2023-04-15T14:36:14;0.90;;;0.90;;
787;SDS011;16074;42.708;23.312;2023-04-15T14:38:43;2.20;;;1.90;;
787;SDS011;16074;42.708;23.312;2023-04-15T14:41:14;1.30;;;1.20;;
787;SDS011;16074;42.708;23.312;2023-04-15T14:43:44;1.40;;;1.40;;
787;SDS011;16074;42.708;23.312;2023-04-15T14:46:13;2.03;;;1.93;;
787;SDS011;16074;42.708;23.312;2023-04-15T14:48:41;2.10;;;1.00;;
787;SDS011;16074;42.708;23.312;2023-04-15T14:51:09;1.33;;;1.23;;
787;SDS011;16074;42.708;23.312;2023-04-15T14:53:38;1.60;;;1.50;;
787;SDS011;16074;42.708;23.312;2023-04-15T14:56:06;1.50;;;1.40;;
787;SDS011;16074;42.708;23.312;2023-04-15T14:58:34;1.57;;;1.47;;
787;SDS011;16074;42.708;23.312;2023-04-15T15:01:04;2.83;;;2.63;;
787;SDS011;16074;42.708;23.312;2023-04-15T15:03:33;8.03;;;3.60;;
787;SDS011;16074;42.708;23.312;2023-04-15T15:06:01;2.00;;;1.90;;
787;SDS011;16074;42.708;23.312;2023-04-15T15:08:29;1.10;;;1.00;;
787;SDS011;16074;42.708;23.312;2023-04-15T15:10:57;1.17;;;1.13;;